createdAt,value
2018-04-16T00:00:58.338Z,21.57
2018-04-16T00:03:24.935Z,23.27
2018-04-16T00:05:51.580Z,25.63
2018-04-16T00:08:18.102Z,23.87
2018-04-16T00:10:44.620Z,25.63
2018-04-16T00:13:11.123Z,25.90
2018-04-16T00:15:37.677Z,25.30
2018-04-16T00:18:04.221Z,25.80
2018-04-16T00:20:30.827Z,26.13
2018-04-16T00:22:57.389Z,25.77
2018-04-16T00:25:23.952Z,26.50
2018-04-16T00:27:50.466Z,25.03
2018-04-16T00:30:17.029Z,25.93
2018-04-16T00:32:49.549Z,26.33
2018-04-16T00:35:22.059Z,24.80
2018-04-16T00:37:54.460Z,24.60
2018-04-16T00:40:27.097Z,25.87
2018-04-16T00:42:59.723Z,24.87
2018-04-16T00:45:32.238Z,24.87
2018-04-16T00:48:04.691Z,24.23
2018-04-16T00:50:37.228Z,24.20
2018-04-16T00:53:09.885Z,24.47
2018-04-16T00:55:43.316Z,24.67
2018-04-16T00:58:15.878Z,23.93
2018-04-16T01:00:48.563Z,24.30
2018-04-16T01:03:21.119Z,25.37
2018-04-16T01:09:03.444Z,22.93
2018-04-16T01:11:36.759Z,26.87
2018-04-16T01:14:09.248Z,25.40
2018-04-16T01:16:41.727Z,25.10
2018-04-16T01:19:14.225Z,25.10
2018-04-16T01:21:47.494Z,23.43
2018-04-16T01:27:20.858Z,25.07
2018-04-16T01:29:54.108Z,25.20
2018-04-16T01:32:27.442Z,24.90
2018-04-16T01:34:59.936Z,24.83
2018-04-16T01:37:32.591Z,25.83
2018-04-16T01:43:05.023Z,25.77
2018-04-16T01:45:37.638Z,23.97
2018-04-16T01:48:10.153Z,24.07
2018-04-16T01:50:42.704Z,24.63
2018-04-16T01:53:15.315Z,24.27
2018-04-16T01:55:48.606Z,23.93
2018-04-16T01:58:21.914Z,23.73
2018-04-16T02:03:56.594Z,25.80
2018-04-16T02:06:41.906Z,26.63
2018-04-16T02:09:14.423Z,24.87
2018-04-16T02:11:46.949Z,22.47
2018-04-16T02:14:19.593Z,24.43
2018-04-16T02:16:52.171Z,26.30
2018-04-16T02:19:24.665Z,25.23
2018-04-16T02:21:57.167Z,27.13
2018-04-16T02:24:29.672Z,25.53
2018-04-16T02:27:02.203Z,25.40
2018-04-16T02:29:34.846Z,26.50
2018-04-16T02:32:07.439Z,25.63
2018-04-16T02:34:39.915Z,24.50
2018-04-16T02:37:12.335Z,25.03
2018-04-16T02:39:45.662Z,25.43
2018-04-16T02:42:18.202Z,25.03
2018-04-16T02:44:51.466Z,25.27
2018-04-16T02:47:24.031Z,26.13
2018-04-16T02:49:56.575Z,23.63
2018-04-16T02:52:29.077Z,26.07
2018-04-16T02:55:01.506Z,25.13
2018-04-16T02:57:34.046Z,23.67
2018-04-16T03:00:06.755Z,23.77
2018-04-16T03:02:40.018Z,24.97
2018-04-16T03:05:12.496Z,24.60
2018-04-16T03:07:45.829Z,25.27
2018-04-16T03:10:18.516Z,25.13
2018-04-16T03:12:51.023Z,25.43
2018-04-16T03:15:23.691Z,24.20
2018-04-16T03:17:56.339Z,24.27
2018-04-16T03:20:29.563Z,23.57
2018-04-16T03:23:02.152Z,25.47
2018-04-16T03:25:34.682Z,24.20
2018-04-16T03:28:07.237Z,26.30
2018-04-16T03:30:39.738Z,25.20
2018-04-16T03:33:12.339Z,25.90
2018-04-16T03:35:44.881Z,29.43
2018-04-16T03:38:17.412Z,31.77
2018-04-16T03:40:49.904Z,32.57
2018-04-16T03:43:22.416Z,33.00
2018-04-16T03:45:55.718Z,30.70
2018-04-16T03:48:28.362Z,29.80
2018-04-16T03:51:00.900Z,30.50
2018-04-16T03:53:36.298Z,31.60
2018-04-16T03:56:02.868Z,31.20
2018-04-16T03:58:30.189Z,33.30
2018-04-16T04:00:56.694Z,32.83
2018-04-16T04:03:23.252Z,31.73
2018-04-16T04:05:49.859Z,32.03
2018-04-16T04:08:16.918Z,29.97
2018-04-16T04:10:43.480Z,31.13
2018-04-16T04:13:10.055Z,30.43
2018-04-16T04:15:36.582Z,29.60
2018-04-16T04:18:03.096Z,28.77
2018-04-16T04:20:29.752Z,28.80
2018-04-16T04:26:13.410Z,27.87
2018-04-16T04:28:52.797Z,28.27
2018-04-16T04:31:19.359Z,28.67
2018-04-16T04:33:45.928Z,29.50
2018-04-16T04:36:12.522Z,28.83
2018-04-16T04:38:39.034Z,28.13
2018-04-16T04:41:05.589Z,26.63
2018-04-16T04:43:32.184Z,27.40
2018-04-16T04:45:58.715Z,29.80
2018-04-16T04:48:25.207Z,29.80
2018-04-16T04:50:51.727Z,29.73
2018-04-16T04:53:18.240Z,29.60
2018-04-16T04:55:44.785Z,30.50
2018-04-16T04:58:19.133Z,30.80
2018-04-16T05:00:45.943Z,31.30
2018-04-16T05:03:12.521Z,30.83
2018-04-16T05:05:39.132Z,31.70
2018-04-16T05:08:05.799Z,30.30
2018-04-16T05:10:32.357Z,33.00
2018-04-16T05:12:59.600Z,31.53
2018-04-16T05:15:26.955Z,35.93
2018-04-16T05:17:54.327Z,34.80
2018-04-16T05:20:20.820Z,33.63
2018-04-16T05:22:47.384Z,33.70
2018-04-16T05:25:14.652Z,33.50
2018-04-16T05:27:41.241Z,34.73
2018-04-16T05:30:07.793Z,35.67
2018-04-16T05:32:34.396Z,34.27
2018-04-16T05:35:00.923Z,32.93
2018-04-16T05:37:27.501Z,32.97
2018-04-16T05:39:54.051Z,34.70
2018-04-16T05:42:20.537Z,33.23
2018-04-16T05:44:47.062Z,32.27
2018-04-16T05:47:13.590Z,33.17
2018-04-16T05:49:40.132Z,31.33
2018-04-16T05:52:06.661Z,31.73
2018-04-16T05:54:33.251Z,31.80
2018-04-16T05:56:59.806Z,32.20
2018-04-16T05:59:27.069Z,29.87
2018-04-16T06:01:53.602Z,29.83
2018-04-16T06:04:20.845Z,31.43
2018-04-16T06:06:48.114Z,31.40
2018-04-16T06:09:14.642Z,29.07
2018-04-16T06:11:41.174Z,31.03
2018-04-16T06:14:07.719Z,29.13
2018-04-16T06:16:34.269Z,29.97
2018-04-16T06:19:00.801Z,29.57
2018-04-16T06:21:27.393Z,29.43
2018-04-16T06:23:53.937Z,28.23
2018-04-16T06:26:20.600Z,26.20
2018-04-16T06:28:47.918Z,26.83
2018-04-16T06:31:14.425Z,27.27
2018-04-16T06:33:40.936Z,27.37
2018-04-16T06:36:07.486Z,26.50
2018-04-16T06:38:34.009Z,26.17
2018-04-16T06:41:01.265Z,26.37
2018-04-16T06:43:27.791Z,29.20
2018-04-16T06:45:54.375Z,27.83
2018-04-16T06:48:21.727Z,26.20
2018-04-16T06:50:48.233Z,24.63
2018-04-16T06:53:14.748Z,23.33
2018-04-16T06:55:41.245Z,25.30
2018-04-16T06:58:07.798Z,23.23
2018-04-16T07:00:34.381Z,22.27
2018-04-16T07:03:00.980Z,25.10
2018-04-16T07:05:27.570Z,24.50
2018-04-16T07:07:54.102Z,23.07
2018-04-16T07:10:20.711Z,23.20
2018-04-16T07:12:47.283Z,23.13
2018-04-16T07:15:13.809Z,22.77
2018-04-16T07:17:40.386Z,23.23
2018-04-16T07:20:06.964Z,22.23
2018-04-16T07:22:34.158Z,22.50
2018-04-16T07:25:00.653Z,23.10
2018-04-16T07:27:27.978Z,23.33
2018-04-16T07:29:54.470Z,22.10
2018-04-16T07:32:21.750Z,21.10
2018-04-16T07:34:48.264Z,21.83
2018-04-16T07:37:15.471Z,21.43
2018-04-16T07:39:42.078Z,21.07
2018-04-16T07:42:08.576Z,20.70
2018-04-16T07:44:35.129Z,20.33
2018-04-16T07:47:01.684Z,19.07
2018-04-16T07:49:28.188Z,21.07
2018-04-16T07:51:55.451Z,19.50
2018-04-16T07:54:22.721Z,17.97
2018-04-16T07:56:50.233Z,17.40
2018-04-16T07:59:16.741Z,20.13
2018-04-16T08:01:44.076Z,19.77
2018-04-16T08:04:10.636Z,19.53
2018-04-16T08:06:39.830Z,20.33
2018-04-16T08:09:06.404Z,18.70
2018-04-16T08:11:32.987Z,19.33
2018-04-16T08:13:59.620Z,19.00
2018-04-16T08:16:26.597Z,18.33
2018-04-16T08:18:53.129Z,17.23
2018-04-16T08:21:19.688Z,17.93
2018-04-16T08:23:46.236Z,17.40
2018-04-16T08:26:12.819Z,17.63
2018-04-16T08:28:40.164Z,15.93
2018-04-16T08:31:06.709Z,16.43
2018-04-16T08:33:33.291Z,14.13
2018-04-16T08:35:59.900Z,14.60
2018-04-16T08:38:26.551Z,15.00
2018-04-16T08:40:53.085Z,15.27
2018-04-16T08:43:19.751Z,14.77
2018-04-16T08:45:46.336Z,16.47
2018-04-16T08:48:17.788Z,14.53
2018-04-16T08:50:44.364Z,13.97
2018-04-16T08:53:10.966Z,14.43
2018-04-16T08:55:37.539Z,15.37
2018-04-16T08:58:04.137Z,18.23
2018-04-16T09:00:30.721Z,16.67
2018-04-16T09:02:57.290Z,17.37
2018-04-16T09:05:23.891Z,16.80
2018-04-16T09:07:50.472Z,16.63
2018-04-16T09:10:17.051Z,17.40
2018-04-16T09:12:43.624Z,16.53
2018-04-16T09:15:10.245Z,16.73
2018-04-16T09:17:36.868Z,16.97
2018-04-16T09:20:03.493Z,17.57
2018-04-16T09:22:30.051Z,17.90
2018-04-16T09:24:56.628Z,16.70
2018-04-16T09:27:23.202Z,15.33
2018-04-16T09:29:50.538Z,15.93
2018-04-16T09:32:17.102Z,16.57
2018-04-16T09:34:43.663Z,18.13
2018-04-16T09:37:10.266Z,17.87
2018-04-16T09:39:36.870Z,15.87
2018-04-16T09:42:03.456Z,16.20
2018-04-16T09:44:30.063Z,15.83
2018-04-16T09:46:56.683Z,15.90
2018-04-16T09:49:23.238Z,13.77
2018-04-16T09:51:49.824Z,16.10
2018-04-16T09:54:16.385Z,14.90
2018-04-16T09:56:42.948Z,16.43
2018-04-16T09:59:09.492Z,17.00
2018-04-16T10:01:37.994Z,16.07
2018-04-16T10:04:04.593Z,16.27
2018-04-16T10:06:31.213Z,16.53
2018-04-16T10:08:57.909Z,16.83
2018-04-16T10:11:24.565Z,17.43
2018-04-16T10:13:51.106Z,15.90
2018-04-16T10:16:17.661Z,16.77
2018-04-16T10:18:44.240Z,15.17
2018-04-16T10:21:10.858Z,15.73
2018-04-16T10:23:37.403Z,13.97
2018-04-16T10:26:03.991Z,12.33
2018-04-16T10:28:30.579Z,13.33
2018-04-16T10:30:57.865Z,12.93
2018-04-16T10:33:24.415Z,11.83
2018-04-16T10:35:50.984Z,12.47
2018-04-16T10:38:17.570Z,10.57
2018-04-16T10:40:44.164Z,11.47
2018-04-16T10:43:10.756Z,12.27
2018-04-16T10:45:37.329Z,12.40
2018-04-16T10:48:03.883Z,10.33
2018-04-16T10:50:30.435Z,10.33
2018-04-16T10:52:57.763Z,11.67
2018-04-16T10:55:24.315Z,11.03
2018-04-16T10:57:50.866Z,11.50
2018-04-16T11:00:17.448Z,11.50
2018-04-16T11:02:44.040Z,12.67
2018-04-16T11:05:10.642Z,12.03
2018-04-16T11:07:37.201Z,12.13
2018-04-16T11:10:04.498Z,11.67
2018-04-16T11:12:31.049Z,11.00
2018-04-16T11:14:57.608Z,11.97
2018-04-16T11:17:24.152Z,11.30
2018-04-16T11:19:50.721Z,11.13
2018-04-16T11:22:17.355Z,11.50
2018-04-16T11:24:43.973Z,11.57
2018-04-16T11:27:10.535Z,11.20
2018-04-16T11:29:37.143Z,11.93
2018-04-16T11:32:04.469Z,10.57
2018-04-16T11:34:31.038Z,11.73
2018-04-16T11:36:58.362Z,11.90
2018-04-16T11:39:24.932Z,11.63
2018-04-16T11:41:51.511Z,11.27
2018-04-16T11:44:18.085Z,11.03
2018-04-16T11:46:44.666Z,11.57
2018-04-16T11:49:11.244Z,11.27
2018-04-16T11:51:37.810Z,11.33
2018-04-16T11:54:04.375Z,12.27
2018-04-16T11:56:30.924Z,12.07
2018-04-16T11:58:57.482Z,11.57
2018-04-16T12:01:24.094Z,13.47
2018-04-16T12:03:50.634Z,11.30
2018-04-16T12:06:17.232Z,11.40
2018-04-16T12:08:44.573Z,11.87
2018-04-16T12:11:11.201Z,12.07
2018-04-16T12:13:37.817Z,11.80
2018-04-16T12:16:04.503Z,12.07
2018-04-16T12:18:30.987Z,12.07
2018-04-16T12:20:57.534Z,11.83
2018-04-16T12:23:24.142Z,11.67
2018-04-16T12:25:50.711Z,12.83
2018-04-16T12:28:17.320Z,11.07
2018-04-16T12:30:43.928Z,12.13
2018-04-16T12:33:10.538Z,11.10
2018-04-16T12:35:37.441Z,11.10
2018-04-16T12:38:04.108Z,12.03
2018-04-16T12:40:30.718Z,11.83
2018-04-16T12:42:57.376Z,12.40
2018-04-16T12:45:25.778Z,13.20
2018-04-16T12:47:52.380Z,11.77
2018-04-16T12:50:18.955Z,13.07
2018-04-16T12:52:45.557Z,12.90
2018-04-16T12:55:12.131Z,13.33
2018-04-16T12:57:38.726Z,14.90
2018-04-16T13:00:05.372Z,14.47
2018-04-16T13:02:31.987Z,15.07
2018-04-16T13:04:58.595Z,15.63
2018-04-16T13:07:25.988Z,15.80
2018-04-16T13:09:52.598Z,15.73
2018-04-16T13:12:19.157Z,15.60
2018-04-16T13:14:45.754Z,15.13
2018-04-16T13:17:12.386Z,14.37
2018-04-16T13:19:39.041Z,14.50
2018-04-16T13:22:09.926Z,14.33
2018-04-16T13:24:37.657Z,15.87
2018-04-16T13:27:05.052Z,15.93
2018-04-16T13:29:31.626Z,12.90
2018-04-16T13:31:58.244Z,12.07
2018-04-16T13:34:24.846Z,12.03
2018-04-16T13:36:51.561Z,11.57
2018-04-16T13:39:18.278Z,12.73
2018-04-16T13:41:44.865Z,12.93
2018-04-16T13:44:11.449Z,11.70
2018-04-16T13:46:38.095Z,11.80
2018-04-16T13:49:04.673Z,13.70
2018-04-16T13:51:31.374Z,12.63
2018-04-16T13:53:58.001Z,12.23
2018-04-16T13:56:24.696Z,12.97
2018-04-16T13:58:51.432Z,11.80
2018-04-16T14:01:18.065Z,13.03
2018-04-16T14:03:44.734Z,13.53
2018-04-16T14:06:11.342Z,12.63
2018-04-16T14:08:38.555Z,11.60
2018-04-16T14:11:05.962Z,13.10
2018-04-16T14:13:32.597Z,12.10
2018-04-16T14:15:59.196Z,12.87
2018-04-16T14:18:25.808Z,13.93
2018-04-16T14:20:52.371Z,13.20
2018-04-16T14:23:18.939Z,13.20
2018-04-16T14:25:45.532Z,13.47
2018-04-16T14:28:12.188Z,13.30
2018-04-16T14:30:38.771Z,15.47
2018-04-16T14:33:05.377Z,13.93
2018-04-16T14:35:31.959Z,13.43
2018-04-16T14:37:58.559Z,14.70
2018-04-16T14:40:25.122Z,13.70
2018-04-16T14:42:51.732Z,13.67
2018-04-16T14:45:18.347Z,13.57
2018-04-16T14:47:45.681Z,15.07
2018-04-16T14:50:12.240Z,14.80
2018-04-16T14:52:39.540Z,14.00
2018-04-16T14:55:06.112Z,14.77
2018-04-16T14:57:32.670Z,13.77
2018-04-16T14:59:59.255Z,12.97
2018-04-16T15:02:25.777Z,12.30
2018-04-16T15:04:52.353Z,11.93
2018-04-16T15:07:18.893Z,12.83
2018-04-16T15:09:45.458Z,13.17
2018-04-16T15:12:12.012Z,13.47
2018-04-16T15:14:38.513Z,12.80
2018-04-16T15:17:05.121Z,13.60
2018-04-16T15:19:31.670Z,13.83
2018-04-16T15:21:58.291Z,14.80
2018-04-16T15:24:24.861Z,13.17
2018-04-16T15:26:51.396Z,13.60
2018-04-16T15:29:17.908Z,14.37
2018-04-16T15:31:44.522Z,14.40
2018-04-16T15:34:11.097Z,14.30
2018-04-16T15:36:37.670Z,15.57
2018-04-16T15:39:05.217Z,15.27
2018-04-16T15:41:32.461Z,15.27
2018-04-16T15:43:59.792Z,13.07
2018-04-16T15:46:26.416Z,12.43
2018-04-16T15:48:52.933Z,12.57
2018-04-16T15:51:19.493Z,10.73
2018-04-16T15:53:46.079Z,12.23
2018-04-16T15:56:13.031Z,12.77
2018-04-16T15:58:39.602Z,13.93
2018-04-16T16:01:06.998Z,13.20
2018-04-16T16:03:36.273Z,15.80
2018-04-16T16:06:02.883Z,15.17
2018-04-16T16:08:29.470Z,16.30
2018-04-16T16:10:56.801Z,17.17
2018-04-16T16:13:23.420Z,18.03
2018-04-16T16:15:49.984Z,20.20
2018-04-16T16:18:16.556Z,18.57
2018-04-16T16:20:43.171Z,18.20
2018-04-16T16:23:10.501Z,12.33
2018-04-16T16:25:37.092Z,13.07
2018-04-16T16:28:03.722Z,15.30
2018-04-16T16:30:31.037Z,15.43
2018-04-16T16:32:57.561Z,14.13
2018-04-16T16:35:24.169Z,11.23
2018-04-16T16:37:50.657Z,11.53
2018-04-16T16:40:18.591Z,13.00
2018-04-16T16:42:46.425Z,12.17
2018-04-16T16:45:12.948Z,12.03
2018-04-16T16:47:39.591Z,13.77
2018-04-16T16:50:06.191Z,14.00
2018-04-16T16:52:32.800Z,12.20
2018-04-16T16:54:59.402Z,13.83
2018-04-16T16:57:26.649Z,14.43
2018-04-16T16:59:54.028Z,15.73
2018-04-16T17:02:20.618Z,14.03
2018-04-16T17:04:47.153Z,14.73
2018-04-16T17:07:13.717Z,14.03
2018-04-16T17:09:40.991Z,13.70
2018-04-16T17:12:08.512Z,14.70
2018-04-16T17:14:35.030Z,13.57
2018-04-16T17:17:01.650Z,13.60
2018-04-16T17:19:28.288Z,12.83
2018-04-16T17:21:54.873Z,12.17
2018-04-16T17:24:21.511Z,12.27
2018-04-16T17:26:48.852Z,12.03
2018-04-16T17:29:15.388Z,12.63
2018-04-16T17:31:42.043Z,13.13
2018-04-16T17:34:08.552Z,11.27
2018-04-16T17:36:35.065Z,11.07
2018-04-16T17:39:01.670Z,11.70
2018-04-16T17:41:28.527Z,11.17
2018-04-16T17:43:55.053Z,12.93
2018-04-16T17:46:21.686Z,12.37
2018-04-16T17:48:48.274Z,13.53
2018-04-16T17:51:14.843Z,11.73
2018-04-16T17:53:41.521Z,11.40
2018-04-16T17:56:08.218Z,8.77
2018-04-16T17:58:34.901Z,9.27
2018-04-16T18:01:02.102Z,9.30
2018-04-16T18:03:29.405Z,8.77
2018-04-16T18:05:55.969Z,7.87
2018-04-16T18:08:22.518Z,7.97
2018-04-16T18:10:49.076Z,6.90
2018-04-16T18:13:15.591Z,5.63
2018-04-16T18:15:42.124Z,4.70
2018-04-16T18:18:09.400Z,5.53
2018-04-16T18:20:36.714Z,5.50
2018-04-16T18:23:03.977Z,5.47
2018-04-16T18:25:30.556Z,5.43
2018-04-16T18:27:57.104Z,6.27
2018-04-16T18:30:23.777Z,6.23
2018-04-16T18:32:50.326Z,5.13
2018-04-16T18:35:16.892Z,6.00
2018-04-16T18:37:43.607Z,6.40
2018-04-16T18:40:10.195Z,6.60
2018-04-16T18:42:36.719Z,6.17
2018-04-16T18:45:03.372Z,5.83
2018-04-16T18:47:29.909Z,5.53
2018-04-16T18:49:56.503Z,5.70
2018-04-16T18:52:24.304Z,6.17
2018-04-16T18:54:50.845Z,5.50
2018-04-16T18:57:17.553Z,5.60
2018-04-16T18:59:44.814Z,5.60
2018-04-16T19:02:11.389Z,6.57
2018-04-16T19:04:38.027Z,6.80
2018-04-16T19:07:04.578Z,6.80
2018-04-16T19:09:31.216Z,6.50
2018-04-16T19:11:57.726Z,6.47
2018-04-16T19:14:24.251Z,6.50
2018-04-16T19:16:50.826Z,6.43
2018-04-16T19:19:17.403Z,5.67
2018-04-16T19:21:49.868Z,7.00
2018-04-16T19:24:16.437Z,5.90
2018-04-16T19:26:48.917Z,7.53
2018-04-16T19:29:15.464Z,6.27
2018-04-16T19:31:42.964Z,6.80
2018-04-16T19:34:15.648Z,6.73
2018-04-16T19:36:42.208Z,6.60
2018-04-16T19:39:08.732Z,6.87
2018-04-16T19:41:42.342Z,8.20
2018-04-16T19:44:08.929Z,9.33
2018-04-16T19:46:35.600Z,7.70
2018-04-16T19:49:08.290Z,8.10
2018-04-16T19:51:35.576Z,7.97
2018-04-16T19:54:02.138Z,6.60
2018-04-16T19:56:34.787Z,7.47
2018-04-16T19:59:02.087Z,7.47
2018-04-16T20:01:28.632Z,6.90
2018-04-16T20:04:00.905Z,6.03
2018-04-16T20:06:27.480Z,7.53
2018-04-16T20:08:53.994Z,12.77
2018-04-16T20:11:20.542Z,6.73
2018-04-16T20:13:47.044Z,7.77
2018-04-16T20:16:14.340Z,6.80
2018-04-16T20:18:40.897Z,6.73
2018-04-16T20:21:07.443Z,6.73
2018-04-16T20:23:34.031Z,6.50
2018-04-16T20:26:00.616Z,6.37
2018-04-16T20:28:27.239Z,6.27
2018-04-16T20:30:53.757Z,6.07
2018-04-16T20:33:20.316Z,5.70
2018-04-16T20:35:46.980Z,6.13
2018-04-16T20:38:13.521Z,6.07
2018-04-16T20:40:40.075Z,6.17
2018-04-16T20:43:06.604Z,6.80
2018-04-16T20:45:33.112Z,5.30
2018-04-16T20:47:59.597Z,6.23
2018-04-16T20:50:26.858Z,6.30
2018-04-16T20:52:53.354Z,6.40
2018-04-16T20:55:19.925Z,5.93
2018-04-16T20:57:46.483Z,5.40
2018-04-16T21:00:13.013Z,5.03
2018-04-16T21:02:39.526Z,6.03
2018-04-16T21:05:06.773Z,5.70
2018-04-16T21:07:34.174Z,4.80
2018-04-16T21:12:32.836Z,4.53
2018-04-16T21:15:00.091Z,5.30
2018-04-16T21:17:26.643Z,5.07
2018-04-16T21:19:53.325Z,5.37
2018-04-16T21:22:19.924Z,5.07
2018-04-16T21:24:46.460Z,5.23
2018-04-16T21:27:13.002Z,5.27
2018-04-16T21:29:39.626Z,5.63
2018-04-16T21:32:06.178Z,5.60
2018-04-16T21:34:32.681Z,5.87
2018-04-16T21:37:00.057Z,5.73
2018-04-16T21:39:26.669Z,5.83
2018-04-16T21:41:53.951Z,4.90
2018-04-16T21:44:20.674Z,5.30
2018-04-16T21:46:47.339Z,5.67
2018-04-16T21:49:14.729Z,5.90
2018-04-16T21:51:41.312Z,5.97
2018-04-16T21:54:07.817Z,6.70
2018-04-16T21:56:34.340Z,6.53
2018-04-16T21:59:00.857Z,5.90
2018-04-16T22:01:27.405Z,6.50
2018-04-16T22:03:54.033Z,6.70
2018-04-16T22:06:20.681Z,6.23
2018-04-16T22:08:47.311Z,6.80
2018-04-16T22:11:13.886Z,6.07
2018-04-16T22:13:40.403Z,5.90
2018-04-16T22:16:06.938Z,6.10
2018-04-16T22:18:33.510Z,6.70
2018-04-16T22:21:00.774Z,5.57
2018-04-16T22:23:27.320Z,5.93
2018-04-16T22:25:53.841Z,5.20
2018-04-16T22:28:20.334Z,5.30
2018-04-16T22:30:46.853Z,3.93
2018-04-16T22:33:14.020Z,4.83
2018-04-16T22:35:40.663Z,4.13
2018-04-16T22:38:07.220Z,4.50
2018-04-16T22:40:34.516Z,3.80
2018-04-16T22:43:01.030Z,4.37
2018-04-16T22:45:27.630Z,3.97
2018-04-16T22:47:54.147Z,2.90
2018-04-16T22:50:20.690Z,3.93
2018-04-16T22:52:47.365Z,3.57
2018-04-16T22:55:13.939Z,3.53
2018-04-16T22:57:40.466Z,3.50
2018-04-16T23:00:07.082Z,3.63
2018-04-16T23:02:33.685Z,3.60
2018-04-16T23:05:00.220Z,3.23
2018-04-16T23:07:26.770Z,3.70
2018-04-16T23:09:54.077Z,3.90
2018-04-16T23:12:20.625Z,4.23
2018-04-16T23:14:47.136Z,4.30
2018-04-16T23:17:13.707Z,4.97
2018-04-16T23:19:40.244Z,5.87
2018-04-16T23:22:06.784Z,5.33
2018-04-16T23:24:33.414Z,5.50
2018-04-16T23:26:59.954Z,4.80
2018-04-16T23:29:26.483Z,4.87
2018-04-16T23:31:53.031Z,5.77
2018-04-16T23:34:19.643Z,5.40
2018-04-16T23:36:46.917Z,5.03
2018-04-16T23:39:13.455Z,6.27
2018-04-16T23:41:40.018Z,4.77
2018-04-16T23:44:07.296Z,4.53
2018-04-16T23:46:33.830Z,4.53
2018-04-16T23:49:00.394Z,4.30
2018-04-16T23:51:26.900Z,5.10
2018-04-16T23:53:53.410Z,4.67
2018-04-16T23:56:20.651Z,5.03
2018-04-16T23:58:47.200Z,5.50
